sensor_id;sensor_type;location;lat;lon;timestamp;P1;durP1;ratioP1;P2;durP2;ratioP2
46084;SDS011;31823;47.032;8.310;2022-08-14T00:00:00;5.97;;;2.03;;
46084;SDS011;31823;47.032;8.310;2022-08-14T00:02:29;2.40;;;2.00;;
46084;SDS011;31823;47.032;8.310;2022-08-14T00:04:55;2.83;;;2.15;;
46084;SDS011;31823;47.032;8.310;2022-08-14T00:07:21;3.90;;;2.13;;
46084;SDS011;31823;47.032;8.310;2022-08-14T00:09:46;3.15;;;2.42;;
46084;SDS011;31823;47.032;8.310;2022-08-14T00:12:12;4.22;;;2.08;;
46084;SDS011;31823;47.032;8.310;2022-08-14T00:14:38;2.28;;;1.95;;
46084;SDS011;31823;47.032;8.310;2022-08-14T00:17:03;4.85;;;2.17;;
46084;SDS011;31823;47.032;8.310;2022-08-14T00:19:29;2.20;;;2.03;;
46084;SDS011;31823;47.032;8.310;2022-08-14T00:21:55;2.90;;;2.22;;
46084;SDS011;31823;47.032;8.310;2022-08-14T00:24:21;2.88;;;2.50;;
46084;SDS011;31823;47.032;8.310;2022-08-14T00:26:47;5.50;;;2.35;;
46084;SDS011;31823;47.032;8.310;2022-08-14T00:29:13;4.30;;;2.25;;
46084;SDS011;31823;47.032;8.310;2022-08-14T00:31:39;2.70;;;2.50;;
46084;SDS011;31823;47.032;8.310;2022-08-14T00:34:05;4.22;;;2.50;;
46084;SDS011;31823;47.032;8.310;2022-08-14T00:36:30;4.07;;;2.20;;
46084;SDS011;31823;47.032;8.310;2022-08-14T00:38:56;6.50;;;2.20;;
46084;SDS011;31823;47.032;8.310;2022-08-14T00:41:22;2.60;;;2.30;;
46084;SDS011;31823;47.032;8.310;2022-08-14T00:43:53;2.75;;;2.20;;
46084;SDS011;31823;47.032;8.310;2022-08-14T00:46:19;3.63;;;2.30;;
46084;SDS011;31823;47.032;8.310;2022-08-14T00:48:45;2.75;;;2.50;;
46084;SDS011;31823;47.032;8.310;2022-08-14T00:51:12;4.03;;;2.53;;
46084;SDS011;31823;47.032;8.310;2022-08-14T00:53:38;4.50;;;2.33;;
46084;SDS011;31823;47.032;8.310;2022-08-14T00:56:04;2.63;;;2.30;;
46084;SDS011;31823;47.032;8.310;2022-08-14T00:58:32;2.60;;;2.33;;
46084;SDS011;31823;47.032;8.310;2022-08-14T01:00:59;2.58;;;2.35;;
46084;SDS011;31823;47.032;8.310;2022-08-14T01:03:36;2.63;;;2.10;;
46084;SDS011;31823;47.032;8.310;2022-08-14T01:06:07;4.82;;;2.40;;
46084;SDS011;31823;47.032;8.310;2022-08-14T01:08:35;2.78;;;2.28;;
46084;SDS011;31823;47.032;8.310;2022-08-14T01:11:03;3.53;;;2.78;;
46084;SDS011;31823;47.032;8.310;2022-08-14T01:13:30;2.33;;;2.10;;
46084;SDS011;31823;47.032;8.310;2022-08-14T01:15:59;4.30;;;2.92;;
46084;SDS011;31823;47.032;8.310;2022-08-14T01:18:27;2.30;;;2.10;;
46084;SDS011;31823;47.032;8.310;2022-08-14T01:21:12;2.72;;;2.30;;
46084;SDS011;31823;47.032;8.310;2022-08-14T01:24:00;2.60;;;2.40;;
46084;SDS011;31823;47.032;8.310;2022-08-14T01:26:26;2.67;;;2.47;;
46084;SDS011;31823;47.032;8.310;2022-08-14T01:28:54;2.97;;;2.60;;
46084;SDS011;31823;47.032;8.310;2022-08-14T01:31:24;2.83;;;2.22;;
46084;SDS011;31823;47.032;8.310;2022-08-14T01:33:54;3.08;;;2.70;;
46084;SDS011;31823;47.032;8.310;2022-08-14T01:36:23;2.47;;;2.28;;
46084;SDS011;31823;47.032;8.310;2022-08-14T01:38:51;2.97;;;2.67;;
46084;SDS011;31823;47.032;8.310;2022-08-14T01:41:21;3.33;;;2.58;;
46084;SDS011;31823;47.032;8.310;2022-08-14T01:46:15;3.20;;;2.90;;
46084;SDS011;31823;47.032;8.310;2022-08-14T01:48:46;3.55;;;2.92;;
46084;SDS011;31823;47.032;8.310;2022-08-14T01:51:13;5.10;;;2.90;;
46084;SDS011;31823;47.032;8.310;2022-08-14T01:53:42;3.35;;;2.90;;
46084;SDS011;31823;47.032;8.310;2022-08-14T01:56:09;3.22;;;2.92;;
46084;SDS011;31823;47.032;8.310;2022-08-14T01:58:36;5.65;;;3.22;;
46084;SDS011;31823;47.032;8.310;2022-08-14T02:01:02;4.18;;;3.33;;
46084;SDS011;31823;47.032;8.310;2022-08-14T02:03:29;3.40;;;3.10;;
46084;SDS011;31823;47.032;8.310;2022-08-14T02:06:00;5.32;;;3.22;;
46084;SDS011;31823;47.032;8.310;2022-08-14T02:08:27;3.83;;;3.45;;
46084;SDS011;31823;47.032;8.310;2022-08-14T02:10:57;3.67;;;3.00;;
46084;SDS011;31823;47.032;8.310;2022-08-14T02:13:46;4.85;;;3.03;;
46084;SDS011;31823;47.032;8.310;2022-08-14T02:16:17;3.95;;;3.30;;
46084;SDS011;31823;47.032;8.310;2022-08-14T02:18:49;4.05;;;3.25;;
46084;SDS011;31823;47.032;8.310;2022-08-14T02:21:15;4.38;;;3.33;;
46084;SDS011;31823;47.032;8.310;2022-08-14T02:23:43;3.80;;;3.25;;
46084;SDS011;31823;47.032;8.310;2022-08-14T02:26:17;5.63;;;2.92;;
46084;SDS011;31823;47.032;8.310;2022-08-14T02:28:48;3.22;;;2.92;;
46084;SDS011;31823;47.032;8.310;2022-08-14T02:31:16;4.05;;;3.22;;
46084;SDS011;31823;47.032;8.310;2022-08-14T02:33:42;4.88;;;3.10;;
46084;SDS011;31823;47.032;8.310;2022-08-14T02:36:09;4.10;;;3.00;;
46084;SDS011;31823;47.032;8.310;2022-08-14T02:38:36;4.13;;;3.22;;
46084;SDS011;31823;47.032;8.310;2022-08-14T02:41:03;3.22;;;2.88;;
46084;SDS011;31823;47.032;8.310;2022-08-14T02:43:33;3.47;;;3.17;;
46084;SDS011;31823;47.032;8.310;2022-08-14T02:45:58;4.75;;;3.25;;
46084;SDS011;31823;47.032;8.310;2022-08-14T02:48:25;3.70;;;3.15;;
46084;SDS011;31823;47.032;8.310;2022-08-14T02:51:00;3.33;;;3.03;;
46084;SDS011;31823;47.032;8.310;2022-08-14T02:53:31;4.80;;;3.20;;
46084;SDS011;31823;47.032;8.310;2022-08-14T02:55:57;4.20;;;3.22;;
46084;SDS011;31823;47.032;8.310;2022-08-14T02:58:24;4.57;;;3.35;;
46084;SDS011;31823;47.032;8.310;2022-08-14T03:00:50;3.72;;;3.13;;
46084;SDS011;31823;47.032;8.310;2022-08-14T03:03:16;3.55;;;3.25;;
46084;SDS011;31823;47.032;8.310;2022-08-14T03:05:46;3.28;;;2.97;;
46084;SDS011;31823;47.032;8.310;2022-08-14T03:08:16;3.55;;;2.88;;
46084;SDS011;31823;47.032;8.310;2022-08-14T03:10:42;4.68;;;2.88;;
46084;SDS011;31823;47.032;8.310;2022-08-14T03:13:09;3.67;;;3.30;;
46084;SDS011;31823;47.032;8.310;2022-08-14T03:15:35;3.83;;;2.88;;
46084;SDS011;31823;47.032;8.310;2022-08-14T03:18:19;3.90;;;3.35;;
46084;SDS011;31823;47.032;8.310;2022-08-14T03:20:49;6.70;;;3.03;;
46084;SDS011;31823;47.032;8.310;2022-08-14T03:23:16;3.63;;;3.20;;
46084;SDS011;31823;47.032;8.310;2022-08-14T03:25:42;3.20;;;2.90;;
46084;SDS011;31823;47.032;8.310;2022-08-14T03:28:09;8.30;;;2.95;;
46084;SDS011;31823;47.032;8.310;2022-08-14T03:30:36;3.88;;;3.45;;
46084;SDS011;31823;47.032;8.310;2022-08-14T03:33:02;3.58;;;3.28;;
46084;SDS011;31823;47.032;8.310;2022-08-14T03:35:28;3.80;;;3.00;;
46084;SDS011;31823;47.032;8.310;2022-08-14T03:37:55;6.05;;;3.58;;
46084;SDS011;31823;47.032;8.310;2022-08-14T03:40:28;4.00;;;2.95;;
46084;SDS011;31823;47.032;8.310;2022-08-14T03:42:54;3.60;;;3.30;;
46084;SDS011;31823;47.032;8.310;2022-08-14T03:45:19;3.90;;;3.50;;
46084;SDS011;31823;47.032;8.310;2022-08-14T03:47:46;3.40;;;3.00;;
46084;SDS011;31823;47.032;8.310;2022-08-14T03:50:11;4.90;;;3.42;;
46084;SDS011;31823;47.032;8.310;2022-08-14T03:52:38;4.15;;;3.30;;
46084;SDS011;31823;47.032;8.310;2022-08-14T03:55:07;4.47;;;3.45;;
46084;SDS011;31823;47.032;8.310;2022-08-14T03:57:36;4.00;;;3.50;;
46084;SDS011;31823;47.032;8.310;2022-08-14T04:00:06;3.80;;;3.45;;
46084;SDS011;31823;47.032;8.310;2022-08-14T04:02:35;4.13;;;3.30;;
46084;SDS011;31823;47.032;8.310;2022-08-14T04:05:03;4.95;;;3.83;;
46084;SDS011;31823;47.032;8.310;2022-08-14T04:07:32;3.90;;;3.30;;
46084;SDS011;31823;47.032;8.310;2022-08-14T04:09:59;3.78;;;3.08;;
46084;SDS011;31823;47.032;8.310;2022-08-14T04:12:25;4.03;;;3.35;;
46084;SDS011;31823;47.032;8.310;2022-08-14T04:14:51;3.45;;;3.15;;
46084;SDS011;31823;47.032;8.310;2022-08-14T04:17:18;4.13;;;3.72;;
46084;SDS011;31823;47.032;8.310;2022-08-14T04:19:44;4.63;;;3.80;;
46084;SDS011;31823;47.032;8.310;2022-08-14T04:22:11;4.80;;;3.72;;
46084;SDS011;31823;47.032;8.310;2022-08-14T04:24:38;4.57;;;3.10;;
46084;SDS011;31823;47.032;8.310;2022-08-14T04:27:08;4.38;;;3.13;;
46084;SDS011;31823;47.032;8.310;2022-08-14T04:29:39;3.58;;;3.17;;
46084;SDS011;31823;47.032;8.310;2022-08-14T04:32:09;3.92;;;3.53;;
46084;SDS011;31823;47.032;8.310;2022-08-14T04:34:38;3.63;;;3.28;;
46084;SDS011;31823;47.032;8.310;2022-08-14T04:37:05;3.88;;;3.50;;
46084;SDS011;31823;47.032;8.310;2022-08-14T04:39:53;4.28;;;3.03;;
46084;SDS011;31823;47.032;8.310;2022-08-14T04:42:38;3.40;;;3.10;;
46084;SDS011;31823;47.032;8.310;2022-08-14T04:45:24;3.88;;;3.58;;
46084;SDS011;31823;47.032;8.310;2022-08-14T04:47:54;3.90;;;3.45;;
46084;SDS011;31823;47.032;8.310;2022-08-14T04:50:39;4.82;;;3.47;;
46084;SDS011;31823;47.032;8.310;2022-08-14T04:53:05;5.90;;;3.17;;
46084;SDS011;31823;47.032;8.310;2022-08-14T04:55:30;3.80;;;3.40;;
46084;SDS011;31823;47.032;8.310;2022-08-14T04:57:57;4.28;;;3.60;;
46084;SDS011;31823;47.032;8.310;2022-08-14T05:00:23;3.35;;;3.08;;
46084;SDS011;31823;47.032;8.310;2022-08-14T05:02:49;5.55;;;3.10;;
46084;SDS011;31823;47.032;8.310;2022-08-14T05:05:14;4.53;;;3.50;;
46084;SDS011;31823;47.032;8.310;2022-08-14T05:07:40;3.40;;;3.10;;
46084;SDS011;31823;47.032;8.310;2022-08-14T05:10:06;6.95;;;3.22;;
46084;SDS011;31823;47.032;8.310;2022-08-14T05:12:32;4.80;;;3.60;;
46084;SDS011;31823;47.032;8.310;2022-08-14T05:14:58;3.17;;;2.78;;
46084;SDS011;31823;47.032;8.310;2022-08-14T05:17:24;3.30;;;3.00;;
46084;SDS011;31823;47.032;8.310;2022-08-14T05:19:50;3.42;;;3.13;;
46084;SDS011;31823;47.032;8.310;2022-08-14T05:22:17;3.25;;;2.80;;
46084;SDS011;31823;47.032;8.310;2022-08-14T05:24:47;5.43;;;3.50;;
46084;SDS011;31823;47.032;8.310;2022-08-14T05:27:13;3.20;;;2.90;;
46084;SDS011;31823;47.032;8.310;2022-08-14T05:29:39;4.85;;;3.10;;
46084;SDS011;31823;47.032;8.310;2022-08-14T05:32:08;3.35;;;3.00;;
46084;SDS011;31823;47.032;8.310;2022-08-14T05:34:34;3.63;;;3.10;;
46084;SDS011;31823;47.032;8.310;2022-08-14T05:37:00;5.35;;;3.22;;
46084;SDS011;31823;47.032;8.310;2022-08-14T05:39:27;4.65;;;3.25;;
46084;SDS011;31823;47.032;8.310;2022-08-14T05:41:53;3.70;;;3.33;;
46084;SDS011;31823;47.032;8.310;2022-08-14T05:44:20;3.72;;;3.35;;
46084;SDS011;31823;47.032;8.310;2022-08-14T05:46:46;4.13;;;3.28;;
46084;SDS011;31823;47.032;8.310;2022-08-14T05:49:12;4.15;;;3.35;;
46084;SDS011;31823;47.032;8.310;2022-08-14T05:51:39;4.53;;;3.33;;
46084;SDS011;31823;47.032;8.310;2022-08-14T05:54:05;5.07;;;3.45;;
46084;SDS011;31823;47.032;8.310;2022-08-14T05:56:31;3.33;;;3.00;;
46084;SDS011;31823;47.032;8.310;2022-08-14T05:58:57;7.40;;;3.90;;
46084;SDS011;31823;47.032;8.310;2022-08-14T06:01:23;5.00;;;3.40;;
46084;SDS011;31823;47.032;8.310;2022-08-14T06:03:49;3.20;;;2.90;;
46084;SDS011;31823;47.032;8.310;2022-08-14T06:06:16;3.63;;;3.28;;
46084;SDS011;31823;47.032;8.310;2022-08-14T06:08:43;3.90;;;3.30;;
46084;SDS011;31823;47.032;8.310;2022-08-14T06:11:08;3.65;;;3.25;;
46084;SDS011;31823;47.032;8.310;2022-08-14T06:13:36;3.70;;;3.30;;
46084;SDS011;31823;47.032;8.310;2022-08-14T06:16:04;4.18;;;3.03;;
46084;SDS011;31823;47.032;8.310;2022-08-14T06:18:29;6.25;;;3.80;;
46084;SDS011;31823;47.032;8.310;2022-08-14T06:20:55;4.35;;;3.63;;
46084;SDS011;31823;47.032;8.310;2022-08-14T06:23:21;5.40;;;3.35;;
46084;SDS011;31823;47.032;8.310;2022-08-14T06:25:47;4.28;;;3.88;;
46084;SDS011;31823;47.032;8.310;2022-08-14T06:28:16;2.80;;;2.60;;
46084;SDS011;31823;47.032;8.310;2022-08-14T06:30:43;4.30;;;3.28;;
46084;SDS011;31823;47.032;8.310;2022-08-14T06:33:09;3.60;;;3.30;;
46084;SDS011;31823;47.032;8.310;2022-08-14T06:35:34;9.90;;;3.30;;
46084;SDS011;31823;47.032;8.310;2022-08-14T06:38:00;3.30;;;3.00;;
46084;SDS011;31823;47.032;8.310;2022-08-14T06:42:57;5.55;;;3.95;;
46084;SDS011;31823;47.032;8.310;2022-08-14T06:45:23;4.05;;;3.42;;
46084;SDS011;31823;47.032;8.310;2022-08-14T06:47:49;4.70;;;3.50;;
46084;SDS011;31823;47.032;8.310;2022-08-14T06:50:17;6.20;;;4.15;;
46084;SDS011;31823;47.032;8.310;2022-08-14T06:52:45;5.28;;;3.88;;
46084;SDS011;31823;47.032;8.310;2022-08-14T06:55:12;5.03;;;3.92;;
46084;SDS011;31823;47.032;8.310;2022-08-14T06:57:40;6.10;;;4.88;;
46084;SDS011;31823;47.032;8.310;2022-08-14T07:00:11;4.65;;;4.03;;
46084;SDS011;31823;47.032;8.310;2022-08-14T07:02:43;4.47;;;3.40;;
46084;SDS011;31823;47.032;8.310;2022-08-14T07:05:27;4.97;;;3.83;;
46084;SDS011;31823;47.032;8.310;2022-08-14T07:08:29;6.35;;;4.10;;
46084;SDS011;31823;47.032;8.310;2022-08-14T07:10:58;4.25;;;3.85;;
46084;SDS011;31823;47.032;8.310;2022-08-14T07:13:25;5.10;;;4.20;;
46084;SDS011;31823;47.032;8.310;2022-08-14T07:15:52;4.57;;;4.03;;
46084;SDS011;31823;47.032;8.310;2022-08-14T07:20:50;4.85;;;3.90;;
46084;SDS011;31823;47.032;8.310;2022-08-14T07:23:17;5.50;;;4.00;;
46084;SDS011;31823;47.032;8.310;2022-08-14T07:25:44;6.10;;;4.20;;
46084;SDS011;31823;47.032;8.310;2022-08-14T07:28:14;4.13;;;3.65;;
46084;SDS011;31823;47.032;8.310;2022-08-14T07:30:42;7.03;;;4.03;;
46084;SDS011;31823;47.032;8.310;2022-08-14T07:33:08;3.95;;;3.58;;
46084;SDS011;31823;47.032;8.310;2022-08-14T07:35:36;4.93;;;3.70;;
46084;SDS011;31823;47.032;8.310;2022-08-14T07:38:03;4.50;;;3.55;;
46084;SDS011;31823;47.032;8.310;2022-08-14T07:43:15;9.65;;;4.25;;
46084;SDS011;31823;47.032;8.310;2022-08-14T07:45:41;6.88;;;4.03;;
46084;SDS011;31823;47.032;8.310;2022-08-14T07:48:08;4.47;;;4.07;;
46084;SDS011;31823;47.032;8.310;2022-08-14T07:50:34;4.47;;;3.75;;
46084;SDS011;31823;47.032;8.310;2022-08-14T07:53:01;5.78;;;3.95;;
46084;SDS011;31823;47.032;8.310;2022-08-14T07:55:27;4.95;;;4.43;;
46084;SDS011;31823;47.032;8.310;2022-08-14T07:57:53;3.60;;;3.30;;
46084;SDS011;31823;47.032;8.310;2022-08-14T08:00:21;4.60;;;3.92;;
46084;SDS011;31823;47.032;8.310;2022-08-14T08:02:50;4.63;;;3.95;;
46084;SDS011;31823;47.032;8.310;2022-08-14T08:05:18;4.20;;;3.75;;
46084;SDS011;31823;47.032;8.310;2022-08-14T08:07:46;6.80;;;4.03;;
46084;SDS011;31823;47.032;8.310;2022-08-14T08:10:16;4.43;;;3.78;;
46084;SDS011;31823;47.032;8.310;2022-08-14T08:13:12;5.45;;;4.10;;
46084;SDS011;31823;47.032;8.310;2022-08-14T08:15:47;4.78;;;3.70;;
46084;SDS011;31823;47.032;8.310;2022-08-14T08:18:17;3.63;;;3.13;;
46084;SDS011;31823;47.032;8.310;2022-08-14T08:20:46;3.25;;;2.80;;
46084;SDS011;31823;47.032;8.310;2022-08-14T08:23:14;4.40;;;4.00;;
46084;SDS011;31823;47.032;8.310;2022-08-14T08:25:43;3.83;;;3.50;;
46084;SDS011;31823;47.032;8.310;2022-08-14T08:28:13;6.82;;;3.42;;
46084;SDS011;31823;47.032;8.310;2022-08-14T08:30:49;5.35;;;3.45;;
46084;SDS011;31823;47.032;8.310;2022-08-14T08:33:17;3.90;;;3.55;;
46084;SDS011;31823;47.032;8.310;2022-08-14T08:35:44;3.85;;;3.00;;
46084;SDS011;31823;47.032;8.310;2022-08-14T08:38:11;4.35;;;3.00;;
46084;SDS011;31823;47.032;8.310;2022-08-14T08:40:40;3.70;;;3.30;;
46084;SDS011;31823;47.032;8.310;2022-08-14T08:43:18;3.00;;;2.80;;
46084;SDS011;31823;47.032;8.310;2022-08-14T08:48:21;3.45;;;3.15;;
46084;SDS011;31823;47.032;8.310;2022-08-14T08:50:48;3.30;;;2.83;;
46084;SDS011;31823;47.032;8.310;2022-08-14T08:53:14;3.45;;;3.03;;
46084;SDS011;31823;47.032;8.310;2022-08-14T08:55:40;3.60;;;3.30;;
46084;SDS011;31823;47.032;8.310;2022-08-14T08:58:12;3.47;;;2.88;;
46084;SDS011;31823;47.032;8.310;2022-08-14T09:00:44;3.88;;;3.50;;
46084;SDS011;31823;47.032;8.310;2022-08-14T09:03:13;3.65;;;3.28;;
46084;SDS011;31823;47.032;8.310;2022-08-14T09:05:54;4.63;;;3.22;;
46084;SDS011;31823;47.032;8.310;2022-08-14T09:10:55;3.38;;;2.90;;
46084;SDS011;31823;47.032;8.310;2022-08-14T09:13:23;8.38;;;3.15;;
46084;SDS011;31823;47.032;8.310;2022-08-14T09:15:52;5.45;;;3.15;;
46084;SDS011;31823;47.032;8.310;2022-08-14T09:18:20;3.85;;;3.13;;
46084;SDS011;31823;47.032;8.310;2022-08-14T09:20:47;3.53;;;3.22;;
46084;SDS011;31823;47.032;8.310;2022-08-14T09:23:14;3.33;;;3.00;;
46084;SDS011;31823;47.032;8.310;2022-08-14T09:25:42;4.15;;;3.40;;
46084;SDS011;31823;47.032;8.310;2022-08-14T09:28:10;4.07;;;3.55;;
46084;SDS011;31823;47.032;8.310;2022-08-14T09:30:38;3.65;;;3.33;;
46084;SDS011;31823;47.032;8.310;2022-08-14T09:47:05;4.72;;;3.10;;
46084;SDS011;31823;47.032;8.310;2022-08-14T09:49:32;4.97;;;3.45;;
46084;SDS011;31823;47.032;8.310;2022-08-14T09:52:17;5.13;;;3.25;;
46084;SDS011;31823;47.032;8.310;2022-08-14T09:54:47;3.90;;;3.50;;
46084;SDS011;31823;47.032;8.310;2022-08-14T09:57:23;3.28;;;2.97;;
46084;SDS011;31823;47.032;8.310;2022-08-14T09:59:51;3.30;;;3.00;;
46084;SDS011;31823;47.032;8.310;2022-08-14T10:02:17;3.90;;;3.45;;
46084;SDS011;31823;47.032;8.310;2022-08-14T10:04:45;3.92;;;3.50;;
46084;SDS011;31823;47.032;8.310;2022-08-14T10:07:10;6.72;;;3.65;;
46084;SDS011;31823;47.032;8.310;2022-08-14T10:09:46;3.30;;;3.00;;
46084;SDS011;31823;47.032;8.310;2022-08-14T10:12:13;7.15;;;3.30;;
46084;SDS011;31823;47.032;8.310;2022-08-14T10:14:38;4.28;;;3.10;;
46084;SDS011;31823;47.032;8.310;2022-08-14T10:17:05;3.58;;;3.28;;
46084;SDS011;31823;47.032;8.310;2022-08-14T10:19:33;4.25;;;3.85;;
46084;SDS011;31823;47.032;8.310;2022-08-14T10:24:31;3.58;;;3.28;;
46084;SDS011;31823;47.032;8.310;2022-08-14T10:27:12;4.47;;;3.53;;
46084;SDS011;31823;47.032;8.310;2022-08-14T10:29:49;4.57;;;3.28;;
46084;SDS011;31823;47.032;8.310;2022-08-14T10:32:17;3.17;;;2.95;;
46084;SDS011;31823;47.032;8.310;2022-08-14T10:34:45;4.72;;;3.40;;
46084;SDS011;31823;47.032;8.310;2022-08-14T10:37:12;3.88;;;3.38;;
46084;SDS011;31823;47.032;8.310;2022-08-14T10:39:41;4.20;;;3.80;;
46084;SDS011;31823;47.032;8.310;2022-08-14T10:42:10;4.57;;;3.60;;
46084;SDS011;31823;47.032;8.310;2022-08-14T10:44:41;3.97;;;3.60;;
46084;SDS011;31823;47.032;8.310;2022-08-14T10:47:13;4.45;;;4.05;;
46084;SDS011;31823;47.032;8.310;2022-08-14T10:49:43;6.13;;;4.43;;
46084;SDS011;31823;47.032;8.310;2022-08-14T10:52:23;5.10;;;4.18;;
46084;SDS011;31823;47.032;8.310;2022-08-14T10:54:50;4.32;;;3.90;;
46084;SDS011;31823;47.032;8.310;2022-08-14T10:57:18;5.38;;;3.80;;
46084;SDS011;31823;47.032;8.310;2022-08-14T11:00:10;4.13;;;3.72;;
46084;SDS011;31823;47.032;8.310;2022-08-14T11:02:38;4.45;;;4.05;;
46084;SDS011;31823;47.032;8.310;2022-08-14T11:05:13;4.70;;;3.75;;
46084;SDS011;31823;47.032;8.310;2022-08-14T11:10:20;4.68;;;4.18;;
46084;SDS011;31823;47.032;8.310;2022-08-14T11:12:50;4.75;;;4.10;;
46084;SDS011;31823;47.032;8.310;2022-08-14T11:15:23;4.30;;;3.58;;
46084;SDS011;31823;47.032;8.310;2022-08-14T11:17:53;5.00;;;4.60;;
46084;SDS011;31823;47.032;8.310;2022-08-14T11:20:21;4.65;;;4.22;;
46084;SDS011;31823;47.032;8.310;2022-08-14T11:22:50;4.82;;;4.30;;
46084;SDS011;31823;47.032;8.310;2022-08-14T11:25:22;6.40;;;3.75;;
46084;SDS011;31823;47.032;8.310;2022-08-14T11:27:50;4.45;;;4.05;;
46084;SDS011;31823;47.032;8.310;2022-08-14T11:30:24;3.85;;;3.55;;
46084;SDS011;31823;47.032;8.310;2022-08-14T11:32:52;4.90;;;4.10;;
46084;SDS011;31823;47.032;8.310;2022-08-14T11:35:22;4.25;;;3.60;;
46084;SDS011;31823;47.032;8.310;2022-08-14T11:40:24;6.22;;;4.28;;
46084;SDS011;31823;47.032;8.310;2022-08-14T11:42:53;4.10;;;3.45;;
46084;SDS011;31823;47.032;8.310;2022-08-14T11:45:21;3.70;;;3.13;;
46084;SDS011;31823;47.032;8.310;2022-08-14T11:47:51;5.65;;;4.05;;
46084;SDS011;31823;47.032;8.310;2022-08-14T11:50:23;4.25;;;3.85;;
46084;SDS011;31823;47.032;8.310;2022-08-14T11:52:55;4.13;;;3.67;;
46084;SDS011;31823;47.032;8.310;2022-08-14T11:55:22;4.28;;;3.88;;
46084;SDS011;31823;47.032;8.310;2022-08-14T11:57:58;5.60;;;3.50;;
46084;SDS011;31823;47.032;8.310;2022-08-14T12:00:27;4.97;;;3.10;;
46084;SDS011;31823;47.032;8.310;2022-08-14T12:02:56;6.32;;;3.50;;
46084;SDS011;31823;47.032;8.310;2022-08-14T12:05:36;3.53;;;3.17;;
46084;SDS011;31823;47.032;8.310;2022-08-14T12:08:04;3.88;;;3.10;;
46084;SDS011;31823;47.032;8.310;2022-08-14T12:10:31;4.15;;;3.75;;
46084;SDS011;31823;47.032;8.310;2022-08-14T12:13:14;3.45;;;3.15;;
46084;SDS011;31823;47.032;8.310;2022-08-14T12:15:43;4.20;;;3.80;;
46084;SDS011;31823;47.032;8.310;2022-08-14T12:18:28;4.50;;;3.72;;
46084;SDS011;31823;47.032;8.310;2022-08-14T12:23:23;4.25;;;3.75;;
46084;SDS011;31823;47.032;8.310;2022-08-14T12:26:00;5.90;;;3.33;;
46084;SDS011;31823;47.032;8.310;2022-08-14T12:28:28;4.18;;;3.10;;
46084;SDS011;31823;47.032;8.310;2022-08-14T12:30:53;3.90;;;2.75;;
46084;SDS011;31823;47.032;8.310;2022-08-14T12:33:20;2.92;;;2.58;;
46084;SDS011;31823;47.032;8.310;2022-08-14T12:35:50;2.70;;;2.50;;
46084;SDS011;31823;47.032;8.310;2022-08-14T12:38:17;2.90;;;2.70;;
46084;SDS011;31823;47.032;8.310;2022-08-14T12:40:47;5.22;;;2.50;;
46084;SDS011;31823;47.032;8.310;2022-08-14T12:43:15;3.75;;;2.55;;
46084;SDS011;31823;47.032;8.310;2022-08-14T12:45:46;3.10;;;2.78;;
46084;SDS011;31823;47.032;8.310;2022-08-14T12:48:14;2.95;;;2.65;;
46084;SDS011;31823;47.032;8.310;2022-08-14T12:50:41;6.75;;;2.70;;
46084;SDS011;31823;47.032;8.310;2022-08-14T12:53:08;2.97;;;2.78;;
46084;SDS011;31823;47.032;8.310;2022-08-14T12:55:35;2.72;;;2.47;;
46084;SDS011;31823;47.032;8.310;2022-08-14T12:58:03;2.63;;;2.42;;
46084;SDS011;31823;47.032;8.310;2022-08-14T13:00:30;4.30;;;2.75;;
46084;SDS011;31823;47.032;8.310;2022-08-14T13:03:21;2.88;;;2.65;;
46084;SDS011;31823;47.032;8.310;2022-08-14T13:05:48;6.55;;;2.80;;
46084;SDS011;31823;47.032;8.310;2022-08-14T13:08:14;4.28;;;2.70;;
46084;SDS011;31823;47.032;8.310;2022-08-14T13:10:40;2.85;;;2.58;;
46084;SDS011;31823;47.032;8.310;2022-08-14T13:13:06;2.65;;;2.42;;
46084;SDS011;31823;47.032;8.310;2022-08-14T13:15:34;2.78;;;2.58;;
46084;SDS011;31823;47.032;8.310;2022-08-14T13:18:00;3.88;;;3.00;;
46084;SDS011;31823;47.032;8.310;2022-08-14T13:20:28;5.05;;;3.20;;
46084;SDS011;31823;47.032;8.310;2022-08-14T13:22:55;4.30;;;3.22;;
46084;SDS011;31823;47.032;8.310;2022-08-14T13:25:22;4.60;;;2.80;;
46084;SDS011;31823;47.032;8.310;2022-08-14T13:27:53;3.22;;;2.90;;
46084;SDS011;31823;47.032;8.310;2022-08-14T13:30:22;5.00;;;3.13;;
46084;SDS011;31823;47.032;8.310;2022-08-14T13:32:48;4.40;;;2.70;;
46084;SDS011;31823;47.032;8.310;2022-08-14T13:35:15;6.15;;;3.10;;
46084;SDS011;31823;47.032;8.310;2022-08-14T13:37:43;3.05;;;2.75;;
46084;SDS011;31823;47.032;8.310;2022-08-14T13:40:12;3.30;;;3.00;;
46084;SDS011;31823;47.032;8.310;2022-08-14T13:42:41;2.90;;;2.67;;
46084;SDS011;31823;47.032;8.310;2022-08-14T13:45:09;4.32;;;2.90;;
46084;SDS011;31823;47.032;8.310;2022-08-14T13:47:35;8.38;;;3.72;;
46084;SDS011;31823;47.032;8.310;2022-08-14T13:50:03;3.80;;;2.85;;
46084;SDS011;31823;47.032;8.310;2022-08-14T13:52:41;7.43;;;2.55;;
46084;SDS011;31823;47.032;8.310;2022-08-14T13:55:18;4.38;;;2.90;;
46084;SDS011;31823;47.032;8.310;2022-08-14T13:57:56;3.35;;;2.60;;
46084;SDS011;31823;47.032;8.310;2022-08-14T14:00:23;4.10;;;3.50;;
46084;SDS011;31823;47.032;8.310;2022-08-14T14:02:49;3.25;;;2.90;;
46084;SDS011;31823;47.032;8.310;2022-08-14T14:05:17;4.60;;;3.00;;
46084;SDS011;31823;47.032;8.310;2022-08-14T14:07:45;4.22;;;3.20;;
46084;SDS011;31823;47.032;8.310;2022-08-14T14:10:13;3.25;;;2.95;;
46084;SDS011;31823;47.032;8.310;2022-08-14T14:12:41;3.90;;;3.30;;
46084;SDS011;31823;47.032;8.310;2022-08-14T14:15:17;3.63;;;3.33;;
46084;SDS011;31823;47.032;8.310;2022-08-14T14:17:44;3.22;;;2.92;;
46084;SDS011;31823;47.032;8.310;2022-08-14T14:20:16;3.95;;;3.05;;
46084;SDS011;31823;47.032;8.310;2022-08-14T14:22:44;3.72;;;2.90;;
46084;SDS011;31823;47.032;8.310;2022-08-14T14:25:11;3.10;;;2.67;;
46084;SDS011;31823;47.032;8.310;2022-08-14T14:27:42;3.60;;;3.17;;
46084;SDS011;31823;47.032;8.310;2022-08-14T14:30:10;3.20;;;2.72;;
46084;SDS011;31823;47.032;8.310;2022-08-14T14:32:38;5.10;;;3.00;;
46084;SDS011;31823;47.032;8.310;2022-08-14T14:35:05;4.63;;;2.88;;
46084;SDS011;31823;47.032;8.310;2022-08-14T14:37:37;3.70;;;2.85;;
46084;SDS011;31823;47.032;8.310;2022-08-14T14:40:04;8.55;;;3.08;;
46084;SDS011;31823;47.032;8.310;2022-08-14T14:42:31;5.07;;;3.30;;
46084;SDS011;31823;47.032;8.310;2022-08-14T14:45:09;8.50;;;3.67;;
46084;SDS011;31823;47.032;8.310;2022-08-14T14:47:40;4.25;;;3.50;;
46084;SDS011;31823;47.032;8.310;2022-08-14T14:50:08;5.85;;;2.80;;
46084;SDS011;31823;47.032;8.310;2022-08-14T14:52:35;5.07;;;2.88;;
46084;SDS011;31823;47.032;8.310;2022-08-14T14:55:02;4.93;;;2.63;;
46084;SDS011;31823;47.032;8.310;2022-08-14T14:57:29;4.30;;;3.03;;
46084;SDS011;31823;47.032;8.310;2022-08-14T14:59:55;3.53;;;2.83;;
46084;SDS011;31823;47.032;8.310;2022-08-14T15:02:31;3.65;;;2.80;;
46084;SDS011;31823;47.032;8.310;2022-08-14T15:04:58;3.92;;;2.80;;
46084;SDS011;31823;47.032;8.310;2022-08-14T15:07:24;3.40;;;2.50;;
46084;SDS011;31823;47.032;8.310;2022-08-14T15:09:50;4.03;;;2.60;;
46084;SDS011;31823;47.032;8.310;2022-08-14T15:12:16;5.00;;;3.42;;
46084;SDS011;31823;47.032;8.310;2022-08-14T15:14:42;3.03;;;2.67;;
46084;SDS011;31823;47.032;8.310;2022-08-14T15:17:08;2.85;;;2.58;;
46084;SDS011;31823;47.032;8.310;2022-08-14T15:19:34;5.45;;;3.30;;
46084;SDS011;31823;47.032;8.310;2022-08-14T15:22:00;5.07;;;3.00;;
46084;SDS011;31823;47.032;8.310;2022-08-14T15:24:26;3.83;;;2.63;;
46084;SDS011;31823;47.032;8.310;2022-08-14T15:26:51;3.42;;;2.63;;
46084;SDS011;31823;47.032;8.310;2022-08-14T15:29:17;3.92;;;2.83;;
46084;SDS011;31823;47.032;8.310;2022-08-14T15:31:43;3.38;;;2.80;;
46084;SDS011;31823;47.032;8.310;2022-08-14T15:34:09;3.53;;;2.88;;
46084;SDS011;31823;47.032;8.310;2022-08-14T15:36:39;3.08;;;2.78;;